Time;durP1;ratioP1;P1;durP2;ratioP2;P2;SDS_P1;SDS_P2;PMS_P1;PMS_P2;Temp;Humidity;BMP_temperature;BMP_pressure;BME280_temperature;BME280_humidity;BME280_pressure;Samples;Min_cycle;Max_cycle;Signal;HPM_P1;HPM_P2
2022/09/05 00:02:05;;;;;;;4.13;3.77;;;;;;;;;;5013476;28;20476;-71
2022/09/05 00:04:31;;;;;;;14.77;4.10;;;;;;;;;;5013532;28;20406;-70
2022/09/05 00:07:11;;;;;;;3.90;3.20;;;;;;;;;;4995790;28;20914;-71
2022/09/05 00:09:37;;;;;;;7.93;3.17;;;;;;;;;;5013518;28;20415;-70
2022/09/05 00:12:05;;;;;;;4.97;3.27;;;;;;;;;;5013503;28;20489;-70
2022/09/05 00:14:49;;;;;;;7.30;3.47;;;;;;;;;;5013455;28;20971;-71
2022/09/05 00:17:27;;;;;;;3.60;3.40;;;;;;;;;;5013556;28;20404;-70
2022/09/05 00:20:03;;;;;;;6.70;3.13;;;;;;;;;;5013392;28;20409;-70
2022/09/05 00:22:47;;;;;;;3.33;3.13;;;;;;;;;;4995696;28;21004;-70
2022/09/05 00:25:13;;;;;;;10.00;3.87;;;;;;;;;;5013408;28;20915;-70
2022/09/05 00:27:48;;;;;;;4.07;3.67;;;;;;;;;;5013309;28;20441;-70
2022/09/05 00:30:15;;;;;;;3.40;3.20;;;;;;;;;;5013231;28;20411;-71
2022/09/05 00:32:48;;;;;;;3.53;3.27;;;;;;;;;;4995591;28;20424;-71
2022/09/05 00:35:32;;;;;;;6.13;3.20;;;;;;;;;;5013266;28;20412;-71
2022/09/05 00:38:09;;;;;;;9.40;4.27;;;;;;;;;;5013140;28;20505;-71
2022/09/05 00:40:41;;;;;;;3.80;3.50;;;;;;;;;;5013107;28;20818;-71
2022/09/05 00:43:16;;;;;;;5.20;3.30;;;;;;;;;;4995541;28;20808;-71
2022/09/05 00:45:51;;;;;;;7.93;3.60;;;;;;;;;;5013136;28;20412;-71
2022/09/05 00:48:18;;;;;;;5.73;3.20;;;;;;;;;;4995494;28;20444;-71
2022/09/05 00:51:02;;;;;;;3.47;3.37;;;;;;;;;;4998072;28;20457;-71
2022/09/05 00:53:51;;;;;;;5.30;3.10;;;;;;;;;;5016594;28;20449;-71
2022/09/05 00:56:36;;;;;;;3.63;3.53;;;;;;;;;;5003836;28;20488;-70
2022/09/05 00:59:20;;;;;;;4.10;3.60;;;;;;;;;;5016432;28;20768;-71
2022/09/05 01:01:50;;;;;;;4.90;3.63;;;;;;;;;;5016346;28;20465;-70
2022/09/05 01:04:16;;;;;;;3.33;3.13;;;;;;;;;;5016313;28;20415;-71
2022/09/05 01:06:50;;;;;;;3.77;3.47;;;;;;;;;;5016230;28;20421;-70
2022/09/05 01:09:22;;;;;;;3.20;3.03;;;;;;;;;;5016265;28;20447;-70
2022/09/05 01:11:48;;;;;;;3.80;3.50;;;;;;;;;;5016267;28;20495;-70
2022/09/05 01:14:20;;;;;;;3.50;3.20;;;;;;;;;;5016218;28;20400;-71
2022/09/05 01:16:58;;;;;;;6.37;3.50;;;;;;;;;;5016158;28;20419;-71
2022/09/05 01:19:36;;;;;;;3.37;3.27;;;;;;;;;;5016035;28;20890;-70
2022/09/05 01:22:21;;;;;;;3.40;3.10;;;;;;;;;;5015922;28;20476;-70
2022/09/05 01:25:03;;;;;;;7.40;4.07;;;;;;;;;;5015941;28;20492;-70
2022/09/05 01:27:48;;;;;;;10.40;3.87;;;;;;;;;;4998298;28;20558;-70
2022/09/05 01:30:18;;;;;;;3.87;3.20;;;;;;;;;;4998294;28;20425;-72
2022/09/05 01:33:03;;;;;;;3.43;3.33;;;;;;;;;;5015871;28;20440;-70
2022/09/05 01:35:29;;;;;;;3.63;3.53;;;;;;;;;;5015677;28;20907;-70
2022/09/05 01:38:08;;;;;;;3.87;3.27;;;;;;;;;;5015744;28;20934;-70
2022/09/05 01:40:49;;;;;;;5.33;3.10;;;;;;;;;;4997926;28;20432;-70
2022/09/05 01:43:34;;;;;;;7.20;3.40;;;;;;;;;;5015632;28;20424;-70
2022/09/05 01:46:20;;;;;;;5.53;3.60;;;;;;;;;;5015582;28;20462;-70
2022/09/05 01:48:46;;;;;;;6.43;3.70;;;;;;;;;;4981724;28;20424;-70
2022/09/05 01:51:18;;;;;;;4.27;3.70;;;;;;;;;;5015303;28;20812;-70
2022/09/05 01:53:50;;;;;;;6.83;3.23;;;;;;;;;;5015464;28;20400;-70
2022/09/05 01:56:35;;;;;;;3.50;3.30;;;;;;;;;;5015355;28;20413;-70
2022/09/05 01:59:16;;;;;;;6.57;3.70;;;;;;;;;;5015437;28;20392;-70
2022/09/05 02:01:48;;;;;;;12.00;3.83;;;;;;;;;;5014259;28;20476;-70
2022/09/05 02:04:33;;;;;;;6.37;3.30;;;;;;;;;;5015310;28;20412;-70
2022/09/05 02:07:01;;;;;;;4.10;3.80;;;;;;;;;;5015074;28;20914;-71
2022/09/05 02:09:57;;;;;;;3.60;3.40;;;;;;;;;;4997574;28;20424;-70
2022/09/05 02:12:41;;;;;;;4.50;3.37;;;;;;;;;;4994310;28;20419;-70
2022/09/05 02:15:18;;;;;;;10.60;3.77;;;;;;;;;;5014982;28;20421;-70
2022/09/05 02:17:44;;;;;;;3.57;3.40;;;;;;;;;;5015008;28;20491;-70
2022/09/05 02:20:16;;;;;;;4.17;3.77;;;;;;;;;;5014933;28;20933;-70
2022/09/05 02:22:44;;;;;;;4.40;4.00;;;;;;;;;;5014807;28;20482;-70
2022/09/05 02:25:28;;;;;;;4.50;3.93;;;;;;;;;;5014766;28;20474;-70
2022/09/05 02:27:59;;;;;;;6.67;4.80;;;;;;;;;;4997227;28;20523;-70
2022/09/05 02:30:29;;;;;;;4.03;3.80;;;;;;;;;;5014715;28;20479;-70
2022/09/05 02:33:14;;;;;;;3.93;3.73;;;;;;;;;;5014739;28;20416;-69
2022/09/05 02:35:52;;;;;;;7.40;3.50;;;;;;;;;;5014708;28;20420;-69
2022/09/05 02:38:18;;;;;;;3.63;3.53;;;;;;;;;;5014647;28;20499;-68
2022/09/05 02:40:46;;;;;;;3.40;3.20;;;;;;;;;;4996909;28;20512;-68
2022/09/05 02:43:12;;;;;;;7.40;3.63;;;;;;;;;;5014600;28;20466;-68
2022/09/05 02:46:02;;;;;;;4.17;3.93;;;;;;;;;;5014474;28;20404;-69
2022/09/05 02:48:37;;;;;;;4.87;3.40;;;;;;;;;;5014481;28;20405;-69
2022/09/05 02:51:15;;;;;;;3.87;3.60;;;;;;;;;;5014038;28;20475;-70
2022/09/05 02:53:44;;;;;;;4.43;4.03;;;;;;;;;;5014389;28;20899;-69
2022/09/05 02:56:22;;;;;;;6.10;3.50;;;;;;;;;;5014331;28;20503;-69
2022/09/05 02:59:17;;;;;;;15.93;3.90;;;;;;;;;;5014224;28;20435;-68
2022/09/05 03:01:55;;;;;;;7.37;3.73;;;;;;;;;;4927758;28;20496;-68
2022/09/05 03:04:21;;;;;;;3.90;3.57;;;;;;;;;;5014268;28;20886;-69
2022/09/05 03:06:56;;;;;;;4.70;3.77;;;;;;;;;;4996509;28;20428;-69
2022/09/05 03:09:39;;;;;;;6.20;3.67;;;;;;;;;;5014107;28;20495;-69
2022/09/05 03:12:08;;;;;;;6.10;3.70;;;;;;;;;;5014022;28;20412;-69
2022/09/05 03:14:49;;;;;;;3.90;3.70;;;;;;;;;;5014045;28;20832;-69
2022/09/05 03:17:15;;;;;;;4.03;3.73;;;;;;;;;;5014089;28;20495;-69
2022/09/05 03:19:50;;;;;;;4.00;3.63;;;;;;;;;;5014070;28;20475;-69
2022/09/05 03:22:31;;;;;;;3.83;3.53;;;;;;;;;;5013769;28;20488;-69
2022/09/05 03:25:09;;;;;;;6.03;4.17;;;;;;;;;;5013859;28;20399;-69
2022/09/05 03:28:02;;;;;;;4.33;3.60;;;;;;;;;;4996272;28;20515;-69
2022/09/05 03:30:39;;;;;;;5.30;3.63;;;;;;;;;;5013898;28;20412;-69
2022/09/05 03:33:05;;;;;;;4.57;4.27;;;;;;;;;;5013770;28;20419;-69
2022/09/05 03:35:31;;;;;;;3.80;3.50;;;;;;;;;;4996100;28;20414;-69
2022/09/05 03:38:06;;;;;;;7.27;3.90;;;;;;;;;;4996123;28;20423;-69
2022/09/05 03:40:50;;;;;;;7.00;3.70;;;;;;;;;;5013641;28;20407;-68
2022/09/05 03:43:19;;;;;;;3.60;3.43;;;;;;;;;;5013621;28;20436;-69
2022/09/05 03:46:01;;;;;;;4.00;3.30;;;;;;;;;;5013643;28;20419;-69
2022/09/05 03:48:40;;;;;;;4.07;3.60;;;;;;;;;;5013663;28;20424;-69
2022/09/05 03:51:12;;;;;;;6.93;3.90;;;;;;;;;;4995940;28;20856;-69
2022/09/05 03:53:57;;;;;;;5.17;4.30;;;;;;;;;;5013600;28;20816;-69
2022/09/05 03:56:42;;;;;;;4.10;3.67;;;;;;;;;;5013642;28;20457;-69
2022/09/05 03:59:13;;;;;;;6.20;3.80;;;;;;;;;;5013554;28;20956;-70
2022/09/05 04:01:46;;;;;;;5.07;4.10;;;;;;;;;;5013450;28;20493;-69
2022/09/05 04:04:28;;;;;;;5.13;3.90;;;;;;;;;;5013541;28;20764;-69
2022/09/05 04:07:01;;;;;;;4.37;4.07;;;;;;;;;;5013331;28;20414;-69
2022/09/05 04:09:47;;;;;;;4.20;3.90;;;;;;;;;;5013460;28;20396;-69
2022/09/05 04:12:25;;;;;;;3.83;3.63;;;;;;;;;;5013409;28;20428;-69
2022/09/05 04:14:53;;;;;;;3.50;3.30;;;;;;;;;;5013407;28;20404;-69
2022/09/05 04:17:23;;;;;;;4.00;3.80;;;;;;;;;;5013252;28;20909;-68
2022/09/05 04:19:54;;;;;;;4.30;3.57;;;;;;;;;;5013286;28;20845;-69
2022/09/05 04:22:38;;;;;;;7.37;4.27;;;;;;;;;;5013572;28;20475;-69
2022/09/05 04:25:09;;;;;;;5.30;3.80;;;;;;;;;;5015295;28;20411;-69
2022/09/05 04:27:53;;;;;;;5.13;3.90;;;;;;;;;;5017023;28;20412;-68
2022/09/05 04:30:37;;;;;;;4.00;3.80;;;;;;;;;;5016993;28;20426;-69
2022/09/05 04:33:03;;;;;;;3.93;3.43;;;;;;;;;;5016969;28;20419;-68
2022/09/05 04:35:39;;;;;;;4.27;3.57;;;;;;;;;;5016845;28;20412;-69
2022/09/05 04:38:12;;;;;;;4.13;3.80;;;;;;;;;;5016907;28;20490;-69
2022/09/05 04:40:40;;;;;;;7.27;3.50;;;;;;;;;;5016738;28;20413;-69
2022/09/05 04:43:26;;;;;;;4.87;3.67;;;;;;;;;;5016835;28;20443;-68
2022/09/05 04:45:55;;;;;;;12.60;4.30;;;;;;;;;;5016365;28;20443;-69
2022/09/05 04:48:25;;;;;;;3.90;3.70;;;;;;;;;;5016735;28;20424;-69
2022/09/05 04:51:05;;;;;;;4.13;3.83;;;;;;;;;;5016405;28;20962;-69
2022/09/05 04:53:36;;;;;;;4.17;3.83;;;;;;;;;;5016554;28;20423;-69
2022/09/05 04:56:06;;;;;;;4.30;4.00;;;;;;;;;;5016623;28;20396;-69
2022/09/05 04:58:52;;;;;;;11.90;4.20;;;;;;;;;;5016424;28;20456;-70
2022/09/05 05:01:27;;;;;;;5.23;4.47;;;;;;;;;;5016174;28;20548;-69
2022/09/05 05:03:54;;;;;;;4.67;4.27;;;;;;;;;;5016324;28;20407;-70
2022/09/05 05:06:29;;;;;;;4.60;4.23;;;;;;;;;;5016283;28;20426;-70
2022/09/05 05:08:55;;;;;;;4.10;4.00;;;;;;;;;;5016192;28;20410;-70
2022/09/05 05:11:42;;;;;;;11.93;4.23;;;;;;;;;;5016228;28;20424;-70
2022/09/05 05:14:10;;;;;;;4.10;3.90;;;;;;;;;;4999343;28;20495;-69
2022/09/05 05:16:46;;;;;;;4.20;3.90;;;;;;;;;;4998454;28;20431;-70
2022/09/05 05:19:12;;;;;;;5.80;4.40;;;;;;;;;;5016064;28;20423;-70
2022/09/05 05:21:43;;;;;;;10.43;4.20;;;;;;;;;;5015917;28;20828;-69
2022/09/05 05:24:14;;;;;;;8.77;3.90;;;;;;;;;;5015973;28;20414;-69
2022/09/05 05:27:01;;;;;;;4.23;3.77;;;;;;;;;;5015991;28;20416;-70
2022/09/05 05:29:46;;;;;;;4.00;3.90;;;;;;;;;;4967129;28;20434;-69
2022/09/05 05:32:22;;;;;;;5.40;4.07;;;;;;;;;;5015891;28;20412;-69
2022/09/05 05:34:54;;;;;;;4.43;4.30;;;;;;;;;;5015747;28;20497;-69
2022/09/05 05:37:32;;;;;;;14.30;8.50;;;;;;;;;;5015536;28;20936;-69
2022/09/05 05:39:58;;;;;;;4.90;4.53;;;;;;;;;;5015694;28;20918;-70
2022/09/05 05:42:24;;;;;;;21.43;18.63;;;;;;;;;;5015530;28;20553;-70
2022/09/05 05:44:55;;;;;;;9.10;8.30;;;;;;;;;;4998026;28;20944;-70
2022/09/05 05:47:35;;;;;;;7.07;6.30;;;;;;;;;;4997985;28;20444;-69
2022/09/05 05:50:09;;;;;;;11.20;6.43;;;;;;;;;;5015471;28;20494;-69
2022/09/05 05:52:53;;;;;;;9.30;5.50;;;;;;;;;;5015265;28;20550;-70
2022/09/05 05:55:28;;;;;;;4.63;4.10;;;;;;;;;;5015756;28;20889;-70
2022/09/05 05:57:57;;;;;;;5.13;4.80;;;;;;;;;;5015393;28;20408;-69
2022/09/05 06:00:35;;;;;;;4.63;4.30;;;;;;;;;;5015247;28;20465;-69
2022/09/05 06:03:07;;;;;;;4.20;3.90;;;;;;;;;;5015157;28;20491;-70
2022/09/05 06:05:33;;;;;;;8.00;4.20;;;;;;;;;;5014582;28;20420;-69
2022/09/05 06:07:59;;;;;;;4.93;4.43;;;;;;;;;;5014963;28;20400;-69
2022/09/05 06:10:43;;;;;;;4.43;3.83;;;;;;;;;;5015111;28;20431;-69
2022/09/05 06:13:38;;;;;;;4.53;4.20;;;;;;;;;;5015068;28;20479;-71
2022/09/05 06:16:23;;;;;;;14.03;9.47;;;;;;;;;;5015094;28;20408;-71
2022/09/05 06:19:10;;;;;;;8.00;4.57;;;;;;;;;;5015058;28;20428;-69
2022/09/05 06:21:39;;;;;;;4.70;4.50;;;;;;;;;;5014795;28;20923;-67
2022/09/05 06:24:24;;;;;;;5.40;4.33;;;;;;;;;;5014841;28;20896;-68
2022/09/05 06:26:59;;;;;;;5.57;5.00;;;;;;;;;;5015079;28;20812;-68
2022/09/05 06:29:25;;;;;;;9.53;5.37;;;;;;;;;;5014714;28;20492;-68
2022/09/05 06:32:00;;;;;;;4.90;4.80;;;;;;;;;;5014733;28;20966;-68
2022/09/05 06:34:45;;;;;;;5.47;5.17;;;;;;;;;;5014670;28;20466;-69
2022/09/05 06:37:19;;;;;;;7.87;6.07;;;;;;;;;;5014626;28;20982;-68
2022/09/05 06:39:57;;;;;;;7.93;7.20;;;;;;;;;;4997008;28;20420;-69
2022/09/05 06:42:26;;;;;;;7.43;6.73;;;;;;;;;;5014466;28;21057;-69
2022/09/05 06:44:52;;;;;;;36.53;12.70;;;;;;;;;;5014538;28;20420;-70
2022/09/05 06:47:19;;;;;;;7.80;7.07;;;;;;;;;;4996332;28;20417;-68
2022/09/05 06:50:10;;;;;;;8.13;7.30;;;;;;;;;;5014335;28;20892;-70
2022/09/05 06:52:55;;;;;;;8.13;7.07;;;;;;;;;;5003054;28;20452;-70
2022/09/05 06:55:29;;;;;;;8.23;6.97;;;;;;;;;;5014265;28;20410;-71
2022/09/05 06:58:14;;;;;;;7.60;7.00;;;;;;;;;;5014257;28;20451;-69
2022/09/05 07:00:46;;;;;;;10.17;7.40;;;;;;;;;;5014212;28;20410;-69
2022/09/05 07:03:18;;;;;;;8.40;7.77;;;;;;;;;;5014170;28;20423;-69
2022/09/05 07:05:51;;;;;;;11.33;9.30;;;;;;;;;;5014032;28;20445;-69
2022/09/05 07:08:43;;;;;;;9.40;8.50;;;;;;;;;;5014156;28;20990;-69
2022/09/05 07:11:29;;;;;;;11.07;8.13;;;;;;;;;;5014070;28;20413;-70
2022/09/05 07:13:59;;;;;;;9.80;8.90;;;;;;;;;;5013994;28;20770;-71
2022/09/05 07:16:40;;;;;;;9.97;8.57;;;;;;;;;;5014043;28;20483;-69
2022/09/05 07:19:13;;;;;;;10.90;9.30;;;;;;;;;;5013874;28;20415;-71
2022/09/05 07:21:47;;;;;;;9.13;8.43;;;;;;;;;;5013877;28;20477;-70
2022/09/05 07:24:17;;;;;;;18.13;16.20;;;;;;;;;;4996206;28;20857;-70
2022/09/05 07:26:44;;;;;;;17.30;14.63;;;;;;;;;;5013731;28;20428;-69
2022/09/05 07:29:13;;;;;;;14.83;12.87;;;;;;;;;;5013611;28;20414;-69
2022/09/05 07:31:40;;;;;;;10.07;9.20;;;;;;;;;;5013703;28;20413;-70
2022/09/05 07:34:17;;;;;;;9.43;8.37;;;;;;;;;;5013743;28;20404;-71
2022/09/05 07:36:47;;;;;;;11.13;7.33;;;;;;;;;;5013666;28;20424;-66
2022/09/05 07:39:16;;;;;;;9.63;6.30;;;;;;;;;;5013683;28;20405;-67
2022/09/05 07:41:44;;;;;;;10.13;6.53;;;;;;;;;;5013541;28;21025;-66
2022/09/05 07:44:16;;;;;;;4.90;4.60;;;;;;;;;;5013681;28;20404;-66
2022/09/05 07:46:45;;;;;;;6.40;5.63;;;;;;;;;;4996010;28;20482;-66
2022/09/05 07:49:13;;;;;;;6.30;5.90;;;;;;;;;;5013644;28;20472;-66
2022/09/05 07:51:46;;;;;;;5.40;5.00;;;;;;;;;;5012909;28;20477;-66
2022/09/05 07:54:19;;;;;;;8.63;5.00;;;;;;;;;;4995109;28;20420;-66
2022/09/05 07:56:48;;;;;;;5.70;5.30;;;;;;;;;;4995115;28;20947;-66
2022/09/05 07:59:15;;;;;;;7.23;6.10;;;;;;;;;;5013257;28;20415;-66
2022/09/05 08:01:45;;;;;;;4.60;4.40;;;;;;;;;;5016122;28;20504;-65
2022/09/05 08:04:21;;;;;;;7.73;4.87;;;;;;;;;;5016189;28;20418;-67
2022/09/05 08:06:51;;;;;;;6.07;3.73;;;;;;;;;;5016010;28;20517;-65
2022/09/05 08:09:19;;;;;;;3.90;3.63;;;;;;;;;;5016108;28;20869;-67
2022/09/05 08:11:45;;;;;;;4.07;3.90;;;;;;;;;;5016074;28;20413;-64
2022/09/05 08:14:18;;;;;;;4.93;4.63;;;;;;;;;;5015993;28;20404;-65
2022/09/05 08:16:44;;;;;;;4.23;4.03;;;;;;;;;;5015717;28;20410;-67
2022/09/05 08:19:29;;;;;;;4.20;3.90;;;;;;;;;;5015773;28;20940;-65
2022/09/05 08:21:57;;;;;;;3.73;3.53;;;;;;;;;;5015760;28;20486;-68
2022/09/05 08:25:02;;;;;;;3.67;3.33;;;;;;;;;;5015801;28;20499;-67
2022/09/05 08:27:30;;;;;;;8.47;3.17;;;;;;;;;;4917180;29;20539;-67
2022/09/05 08:30:06;;;;;;;4.13;3.40;;;;;;;;;;4917358;29;20413;-65
2022/09/05 08:32:31;;;;;;;3.27;3.07;;;;;;;;;;4972115;28;20521;-67
2022/09/05 08:35:02;;;;;;;3.10;2.80;;;;;;;;;;4998089;28;20446;-66
2022/09/05 08:37:30;;;;;;;3.40;2.80;;;;;;;;;;5015640;28;20446;-68
2022/09/05 08:40:16;;;;;;;6.83;2.67;;;;;;;;;;5015589;28;20882;-67
2022/09/05 08:42:47;;;;;;;3.80;3.50;;;;;;;;;;5015490;28;20810;-66
2022/09/05 08:45:20;;;;;;;2.90;2.70;;;;;;;;;;5015634;28;20407;-66
2022/09/05 08:48:05;;;;;;;3.00;2.90;;;;;;;;;;5015422;28;20415;-66
2022/09/05 08:50:42;;;;;;;4.10;3.50;;;;;;;;;;4961280;28;1058499;-67
2022/09/05 08:53:15;;;;;;;2.70;2.60;;;;;;;;;;5016513;28;20172;-67
2022/09/05 08:55:49;;;;;;;5.27;3.67;;;;;;;;;;5016446;28;20412;-67
2022/09/05 08:58:21;;;;;;;3.27;3.17;;;;;;;;;;4998858;28;20450;-66
2022/09/05 09:00:54;;;;;;;3.23;3.03;;;;;;;;;;5016388;28;20416;-66
2022/09/05 09:03:39;;;;;;;3.87;3.30;;;;;;;;;;5016207;28;20453;-66
2022/09/05 09:06:05;;;;;;;7.47;3.63;;;;;;;;;;4998698;28;20426;-68
2022/09/05 09:08:49;;;;;;;3.40;3.17;;;;;;;;;;5016382;28;20424;-67
2022/09/05 09:11:35;;;;;;;3.80;3.40;;;;;;;;;;5015834;28;20465;-67
2022/09/05 09:14:20;;;;;;;4.40;2.60;;;;;;;;;;5016182;28;20946;-68
2022/09/05 09:17:04;;;;;;;6.77;5.50;;;;;;;;;;5016153;28;20413;-67
2022/09/05 09:20:08;;;;;;;3.90;3.50;;;;;;;;;;5016175;28;20859;-67
2022/09/05 09:22:38;;;;;;;3.90;3.13;;;;;;;;;;4917380;29;20481;-66
2022/09/05 09:25:04;;;;;;;2.80;2.70;;;;;;;;;;5001387;28;20920;-66
2022/09/05 09:27:38;;;;;;;3.83;3.50;;;;;;;;;;4998259;28;20915;-66
2022/09/05 09:30:05;;;;;;;3.63;2.50;;;;;;;;;;5015831;28;20785;-65
2022/09/05 09:32:40;;;;;;;2.97;2.73;;;;;;;;;;5016038;28;20426;-68
2022/09/05 09:35:11;;;;;;;11.43;2.80;;;;;;;;;;5015793;28;20414;-66
2022/09/05 09:37:37;;;;;;;2.93;2.73;;;;;;;;;;5015821;28;20445;-65
2022/09/05 09:40:09;;;;;;;2.33;2.23;;;;;;;;;;5015658;28;20403;-65
2022/09/05 09:42:44;;;;;;;2.70;2.43;;;;;;;;;;5015648;28;20534;-68
2022/09/05 09:45:25;;;;;;;2.67;2.40;;;;;;;;;;4998054;28;20421;-69
2022/09/05 09:48:00;;;;;;;1.90;1.90;;;;;;;;;;5015595;28;20412;-66
2022/09/05 09:50:26;;;;;;;1.80;1.80;;;;;;;;;;5015211;28;20771;-66
2022/09/05 09:52:52;;;;;;;2.90;2.00;;;;;;;;;;4998132;28;20440;-69
2022/09/05 09:55:24;;;;;;;2.50;2.23;;;;;;;;;;5015511;28;20173;-69
2022/09/05 09:58:02;;;;;;;6.20;1.90;;;;;;;;;;5015339;28;20435;-69
2022/09/05 10:00:36;;;;;;;2.40;1.90;;;;;;;;;;5015355;28;20399;-68
2022/09/05 10:03:11;;;;;;;1.70;1.60;;;;;;;;;;5015198;28;20468;-68
2022/09/05 10:06:10;;;;;;;1.80;1.70;;;;;;;;;;5015263;28;20413;-67
2022/09/05 10:08:54;;;;;;;1.97;1.87;;;;;;;;;;4961809;28;20430;-66
2022/09/05 10:11:37;;;;;;;3.30;2.00;;;;;;;;;;5015402;28;20411;-66
2022/09/05 10:14:11;;;;;;;1.83;1.83;;;;;;;;;;4997429;28;20425;-66
2022/09/05 10:16:46;;;;;;;1.90;1.90;;;;;;;;;;5014939;28;20927;-65
2022/09/05 10:19:39;;;;;;;3.83;2.10;;;;;;;;;;5014872;28;20419;-66
2022/09/05 10:22:29;;;;;;;3.23;1.87;;;;;;;;;;5013980;28;20519;-68
2022/09/05 10:25:01;;;;;;;2.50;2.30;;;;;;;;;;5014560;28;20515;-69
2022/09/05 10:27:27;;;;;;;1.87;1.80;;;;;;;;;;5014733;28;20405;-67
2022/09/05 10:30:05;;;;;;;1.70;1.70;;;;;;;;;;5014735;28;20415;-68
2022/09/05 10:32:49;;;;;;;2.50;1.90;;;;;;;;;;5014536;28;20280;-68
2022/09/05 10:35:15;;;;;;;6.83;2.13;;;;;;;;;;5014599;28;20400;-69
2022/09/05 10:37:43;;;;;;;1.50;1.50;;;;;;;;;;5014706;28;20803;-66
2022/09/05 10:40:11;;;;;;;2.13;1.90;;;;;;;;;;5014746;28;20173;-67
2022/09/05 10:42:42;;;;;;;3.10;3.00;;;;;;;;;;5014749;28;20490;-66
2022/09/05 10:45:17;;;;;;;2.53;1.80;;;;;;;;;;5014587;28;20405;-69
2022/09/05 10:48:06;;;;;;;5.03;3.70;;;;;;;;;;5014357;28;20413;-67
2022/09/05 10:50:34;;;;;;;2.20;2.10;;;;;;;;;;5014174;28;20534;-67
2022/09/05 10:53:15;;;;;;;4.10;1.80;;;;;;;;;;5014432;28;20472;-67
2022/09/05 10:55:49;;;;;;;2.30;2.20;;;;;;;;;;5014381;28;20495;-68
2022/09/05 10:58:34;;;;;;;4.20;2.10;;;;;;;;;;5014375;28;20770;-68
2022/09/05 11:01:15;;;;;;;4.00;1.70;;;;;;;;;;5014172;28;20495;-67
2022/09/05 11:03:42;;;;;;;1.70;1.60;;;;;;;;;;5014195;28;20404;-68
2022/09/05 11:06:11;;;;;;;2.73;1.80;;;;;;;;;;5015352;28;20413;-68
2022/09/05 11:08:57;;;;;;;2.80;2.00;;;;;;;;;;5014707;28;20428;-67
2022/09/05 11:11:26;;;;;;;6.33;2.10;;;;;;;;;;5014032;28;20500;-69
2022/09/05 11:13:57;;;;;;;2.87;2.33;;;;;;;;;;5014092;28;20408;-67
2022/09/05 11:16:28;;;;;;;2.60;1.70;;;;;;;;;;5014079;28;20421;-68
2022/09/05 11:19:09;;;;;;;2.53;2.00;;;;;;;;;;5013944;28;20420;-68
2022/09/05 11:21:40;;;;;;;2.10;2.00;;;;;;;;;;5013922;28;21025;-67
2022/09/05 11:24:18;;;;;;;8.23;2.27;;;;;;;;;;5013872;28;20891;-67
2022/09/05 11:26:46;;;;;;;4.13;2.33;;;;;;;;;;4996546;28;20420;-67
2022/09/05 11:29:16;;;;;;;2.10;1.93;;;;;;;;;;5013817;28;20413;-66
2022/09/05 11:31:45;;;;;;;2.60;2.10;;;;;;;;;;4996248;28;20432;-67
2022/09/05 11:34:11;;;;;;;2.80;1.80;;;;;;;;;;4996025;28;20426;-68
2022/09/05 11:36:49;;;;;;;3.13;1.87;;;;;;;;;;5014033;28;20931;-71
2022/09/05 11:39:48;;;;;;;3.03;2.40;;;;;;;;;;5013728;28;20244;-68
2022/09/05 11:42:30;;;;;;;2.20;2.10;;;;;;;;;;5013638;28;20525;-69
2022/09/05 11:45:05;;;;;;;2.43;2.00;;;;;;;;;;5013624;28;20412;-67
2022/09/05 11:47:50;;;;;;;2.00;1.90;;;;;;;;;;5013649;28;20439;-67
2022/09/05 11:50:28;;;;;;;1.90;1.80;;;;;;;;;;5013351;28;20799;-66
2022/09/05 11:53:24;;;;;;;4.83;1.73;;;;;;;;;;5013563;28;20428;-67
2022/09/05 11:56:02;;;;;;;6.87;2.00;;;;;;;;;;4992656;28;20440;-66
2022/09/05 11:58:47;;;;;;;3.50;2.23;;;;;;;;;;5013604;28;20495;-66
2022/09/05 12:01:26;;;;;;;2.43;1.70;;;;;;;;;;5013489;28;20488;-67
2022/09/05 12:04:13;;;;;;;3.17;1.80;;;;;;;;;;5013590;28;20811;-67
2022/09/05 12:06:55;;;;;;;1.77;1.67;;;;;;;;;;5013530;28;20416;-67
2022/09/05 12:09:24;;;;;;;3.23;1.83;;;;;;;;;;5013393;28;20405;-67
2022/09/05 12:12:23;;;;;;;2.00;1.80;;;;;;;;;;5013417;28;20456;-67
2022/09/05 12:14:55;;;;;;;5.33;2.00;;;;;;;;;;4944340;28;20897;-68
2022/09/05 12:17:31;;;;;;;1.80;1.70;;;;;;;;;;5013392;28;20430;-67
2022/09/05 12:19:57;;;;;;;1.97;1.90;;;;;;;;;;5013210;28;20407;-67
2022/09/05 12:22:26;;;;;;;2.77;1.90;;;;;;;;;;5013147;28;20476;-67
2022/09/05 12:25:10;;;;;;;7.40;1.97;;;;;;;;;;5013369;28;20405;-67
2022/09/05 12:27:37;;;;;;;1.77;1.50;;;;;;;;;;5013431;28;20400;-67
2022/09/05 12:30:05;;;;;;;2.43;2.23;;;;;;;;;;5013248;28;20447;-68
2022/09/05 12:32:32;;;;;;;1.97;1.97;;;;;;;;;;5013375;28;20400;-68
2022/09/05 12:34:59;;;;;;;3.37;2.60;;;;;;;;;;5013324;28;20405;-68
2022/09/05 12:37:29;;;;;;;1.93;1.83;;;;;;;;;;5013245;28;20417;-68
2022/09/05 12:39:55;;;;;;;5.53;1.70;;;;;;;;;;5013170;28;20946;-69
2022/09/05 12:42:24;;;;;;;3.63;1.70;;;;;;;;;;4995402;28;20508;-69
2022/09/05 12:44:50;;;;;;;2.13;2.03;;;;;;;;;;5013232;28;20245;-69
2022/09/05 12:47:18;;;;;;;2.40;2.20;;;;;;;;;;5016747;28;20504;-69
2022/09/05 12:50:05;;;;;;;6.13;2.10;;;;;;;;;;4999161;28;20210;-68
2022/09/05 12:52:32;;;;;;;3.50;1.63;;;;;;;;;;5016354;28;20471;-67
2022/09/05 12:55:02;;;;;;;4.83;1.80;;;;;;;;;;5016510;28;20992;-67
2022/09/05 12:57:34;;;;;;;2.07;1.93;;;;;;;;;;5016571;28;20413;-67
2022/09/05 13:00:12;;;;;;;2.07;1.53;;;;;;;;;;4998907;28;20544;-68
2022/09/05 13:02:38;;;;;;;3.13;2.10;;;;;;;;;;4998776;28;20472;-68
2022/09/05 13:05:13;;;;;;;2.00;1.90;;;;;;;;;;5016437;28;20409;-68
2022/09/05 13:07:42;;;;;;;5.40;5.10;;;;;;;;;;5016272;28;20397;-67
2022/09/05 13:10:23;;;;;;;2.90;2.30;;;;;;;;;;5016271;28;20885;-68
2022/09/05 13:12:52;;;;;;;2.30;1.77;;;;;;;;;;5016577;28;20796;-68
2022/09/05 13:15:18;;;;;;;1.90;1.80;;;;;;;;;;4998639;28;21030;-70
2022/09/05 13:17:49;;;;;;;2.13;1.77;;;;;;;;;;5016203;28;20420;-70
2022/09/05 13:20:18;;;;;;;2.53;1.80;;;;;;;;;;5016163;28;20489;-70
2022/09/05 13:22:47;;;;;;;3.27;1.83;;;;;;;;;;5015994;28;20472;-70
2022/09/05 13:25:15;;;;;;;3.60;1.77;;;;;;;;;;5016070;28;20408;-72
2022/09/05 13:27:45;;;;;;;2.00;1.90;;;;;;;;;;4998355;28;20452;-71
2022/09/05 13:30:13;;;;;;;1.80;1.80;;;;;;;;;;5015913;28;21027;-72
2022/09/05 13:32:49;;;;;;;2.50;1.87;;;;;;;;;;5015932;28;20401;-72
2022/09/05 13:35:21;;;;;;;1.63;1.63;;;;;;;;;;4998233;28;20444;-71
2022/09/05 13:38:00;;;;;;;3.00;2.27;;;;;;;;;;5015559;28;20451;-71
2022/09/05 13:40:30;;;;;;;2.90;1.50;;;;;;;;;;5015711;28;20412;-72
2022/09/05 13:42:56;;;;;;;2.23;1.93;;;;;;;;;;5015710;28;20495;-70
2022/09/05 13:45:22;;;;;;;1.70;1.60;;;;;;;;;;5015620;28;20400;-72
2022/09/05 13:48:07;;;;;;;2.60;1.70;;;;;;;;;;5015631;28;20308;-70
2022/09/05 13:50:42;;;;;;;2.80;1.60;;;;;;;;;;5015367;28;20456;-72
2022/09/05 13:53:19;;;;;;;2.80;1.80;;;;;;;;;;5015427;28;20450;-71
2022/09/05 13:55:51;;;;;;;1.53;1.43;;;;;;;;;;5015429;28;20407;-72
2022/09/05 13:58:27;;;;;;;2.60;1.70;;;;;;;;;;5014288;28;20408;-72
2022/09/05 14:01:23;;;;;;;4.37;1.90;;;;;;;;;;5015408;28;20760;-73
2022/09/05 14:04:07;;;;;;;1.50;1.50;;;;;;;;;;4994740;28;20449;-72
2022/09/05 14:06:47;;;;;;;2.40;1.87;;;;;;;;;;5015230;28;20820;-73
2022/09/05 14:09:32;;;;;;;2.73;1.80;;;;;;;;;;5015265;28;20401;-68
2022/09/05 14:12:01;;;;;;;2.53;1.60;;;;;;;;;;5015069;28;20431;-69
2022/09/05 14:14:45;;;;;;;1.73;1.63;;;;;;;;;;5015146;28;20927;-69
2022/09/05 14:17:20;;;;;;;3.00;1.40;;;;;;;;;;4994237;28;20464;-68
2022/09/05 14:22:37;;;;;;;3.60;1.70;;;;;;;;;;5007579;28;20464;-69
2022/09/05 14:25:05;;;;;;;1.63;1.53;;;;;;;;;;5012103;28;20421;-70
2022/09/05 14:27:32;;;;;;;1.57;1.47;;;;;;;;;;5012005;28;20421;-71
2022/09/05 14:29:58;;;;;;;3.37;1.77;;;;;;;;;;5011712;28;20420;-69
2022/09/05 14:32:28;;;;;;;4.07;1.60;;;;;;;;;;4997919;28;20429;-69
2022/09/05 14:35:10;;;;;;;3.43;1.70;;;;;;;;;;5004322;28;20414;-71
2022/09/05 14:37:36;;;;;;;6.13;1.33;;;;;;;;;;5001637;28;20982;-70
2022/09/05 14:40:05;;;;;;;1.30;1.30;;;;;;;;;;4995037;28;20414;-70
2022/09/05 14:42:43;;;;;;;4.57;1.67;;;;;;;;;;4994632;28;20233;-70
2022/09/05 14:45:29;;;;;;;1.30;1.30;;;;;;;;;;4994638;28;20403;-70
2022/09/05 14:48:04;;;;;;;9.80;1.80;;;;;;;;;;4994347;28;20399;-71
2022/09/05 14:50:38;;;;;;;2.10;1.90;;;;;;;;;;4994084;28;20423;-71
2022/09/05 14:53:06;;;;;;;1.50;1.50;;;;;;;;;;4994618;28;20889;-71
2022/09/05 14:55:32;;;;;;;1.87;1.77;;;;;;;;;;4994743;28;20943;-71
2022/09/05 14:57:58;;;;;;;1.60;1.50;;;;;;;;;;4994704;28;20464;-71
2022/09/05 15:00:26;;;;;;;1.80;1.80;;;;;;;;;;4977292;28;20471;-72
2022/09/05 15:02:56;;;;;;;3.43;1.83;;;;;;;;;;4994476;28;20469;-72
2022/09/05 15:05:28;;;;;;;2.97;2.07;;;;;;;;;;4977203;28;20426;-71
2022/09/05 15:08:06;;;;;;;2.00;1.47;;;;;;;;;;4994236;28;20418;-71
2022/09/05 15:10:36;;;;;;;1.83;1.73;;;;;;;;;;4977093;28;20417;-71
2022/09/05 15:13:06;;;;;;;1.80;1.80;;;;;;;;;;4977132;28;20852;-71
2022/09/05 15:15:38;;;;;;;3.90;1.70;;;;;;;;;;4994509;28;20413;-71
2022/09/05 15:18:09;;;;;;;2.20;1.47;;;;;;;;;;4994465;28;20425;-72
2022/09/05 15:20:36;;;;;;;6.17;2.10;;;;;;;;;;4976975;28;20422;-72
2022/09/05 15:23:27;;;;;;;1.43;1.43;;;;;;;;;;4976833;28;20481;-71
2022/09/05 15:26:05;;;;;;;3.37;1.97;;;;;;;;;;4994291;28;20471;-71
2022/09/05 15:28:34;;;;;;;4.07;1.50;;;;;;;;;;4994287;28;20823;-72
2022/09/05 15:31:03;;;;;;;2.63;2.43;;;;;;;;;;4994278;28;20869;-71